createdAt,value
2023-02-05T00:02:13.560Z,1.37
2023-02-05T00:04:44.450Z,1.37
2023-02-05T00:07:22.535Z,1.13
2023-02-05T00:09:55.107Z,1.37
2023-02-05T00:15:18.931Z,1.45
2023-02-05T00:18:00.018Z,1.22
2023-02-05T00:20:48.020Z,1.09
2023-02-05T00:23:19.910Z,1.19
2023-02-05T00:25:48.293Z,1.18
2023-02-05T00:28:29.386Z,1.36
2023-02-05T00:31:07.677Z,1.45
2023-02-05T00:33:44.918Z,1.23
2023-02-05T00:36:18.803Z,1.14
2023-02-05T00:38:56.923Z,1.27
2023-02-05T00:41:31.828Z,1.20
2023-02-05T00:44:07.655Z,1.28
2023-02-05T00:46:42.203Z,1.30
2023-02-05T00:49:10.486Z,1.30
2023-02-05T00:51:46.180Z,1.18
2023-02-05T00:54:18.942Z,1.31
2023-02-05T00:56:56.581Z,1.36
2023-02-05T00:59:32.050Z,1.32
2023-02-05T01:02:01.074Z,1.15
2023-02-05T01:04:34.999Z,1.28
2023-02-05T01:07:14.913Z,1.29
2023-02-05T01:09:56.355Z,1.21
2023-02-05T01:12:30.671Z,1.44
2023-02-05T01:15:15.320Z,1.25
2023-02-05T01:17:54.137Z,1.13
2023-02-05T01:20:25.817Z,1.39
2023-02-05T01:22:57.561Z,1.20
2023-02-05T01:25:34.418Z,1.04
2023-02-05T01:28:04.075Z,1.18
2023-02-05T01:30:35.639Z,1.11
2023-02-05T01:33:07.798Z,1.13
2023-02-05T01:35:42.225Z,1.18
2023-02-05T01:38:11.146Z,1.03
2023-02-05T01:40:48.520Z,0.92
2023-02-05T01:43:28.605Z,0.96
2023-02-05T01:49:01.981Z,0.69
2023-02-05T01:57:39.884Z,0.65
2023-02-05T02:00:21.997Z,0.70
2023-02-05T02:03:00.863Z,0.56
2023-02-05T02:05:35.988Z,0.70
2023-02-05T02:08:13.158Z,0.81
2023-02-05T02:10:45.907Z,0.70
2023-02-05T02:19:38.968Z,0.47
2023-02-05T02:22:51.025Z,0.57
2023-02-05T02:25:44.106Z,0.37
2023-02-05T02:28:21.119Z,0.70
2023-02-05T02:30:57.389Z,0.65
2023-02-05T02:36:26.669Z,0.35
2023-02-05T02:39:05.294Z,0.56
2023-02-05T02:41:40.477Z,0.56
2023-02-05T02:44:32.295Z,0.36
2023-02-05T02:47:08.392Z,0.48
2023-02-05T02:49:44.520Z,0.37
2023-02-05T02:52:16.744Z,0.40
2023-02-05T02:55:02.928Z,0.36
2023-02-05T02:57:34.609Z,0.55
2023-02-05T03:00:17.501Z,0.38
2023-02-05T03:02:47.535Z,0.31
2023-02-05T03:05:21.394Z,0.41
2023-02-05T03:08:06.583Z,0.40
2023-02-05T03:10:42.842Z,0.13
2023-02-05T03:16:28.365Z,0.37
2023-02-05T03:19:06.263Z,0.06
2023-02-05T03:28:34.106Z,0.10
2023-02-05T03:31:11.072Z,0.38
2023-02-05T03:34:02.869Z,0.29
2023-02-05T03:36:47.886Z,0.34
2023-02-05T03:39:43.912Z,0.31
2023-02-05T03:45:28.671Z,0.11
2023-02-05T03:48:29.094Z,-0.06
2023-02-05T03:51:10.856Z,-0.08
2023-02-05T03:53:50.137Z,0.08
2023-02-05T03:56:32.347Z,-0.13
2023-02-05T03:59:04.669Z,-0.14
2023-02-05T04:01:37.995Z,0.03
2023-02-05T04:04:10.279Z,-0.07
2023-02-05T04:06:48.022Z,-0.11
2023-02-05T04:09:29.987Z,0.20
2023-02-05T04:12:05.538Z,0.14
2023-02-05T04:14:36.508Z,0.02
2023-02-05T04:17:05.183Z,-0.03
2023-02-05T04:19:43.673Z,-0.10
2023-02-05T04:22:24.003Z,-0.05
2023-02-05T04:25:03.640Z,-0.13
2023-02-05T04:27:45.528Z,-0.04
2023-02-05T04:30:19.989Z,-0.23
2023-02-05T04:32:57.578Z,-0.30
2023-02-05T04:35:29.660Z,-0.21
2023-02-05T04:38:09.273Z,-0.25
2023-02-05T04:40:45.797Z,-0.22
2023-02-05T04:43:33.668Z,0.05
2023-02-05T04:46:31.705Z,-0.28
2023-02-05T04:49:06.813Z,-0.34
2023-02-05T04:51:45.056Z,-0.22
2023-02-05T04:54:17.175Z,-0.09
2023-02-05T04:56:46.982Z,-0.24
2023-02-05T04:59:21.597Z,-0.26
2023-02-05T05:01:53.390Z,-0.31
2023-02-05T05:04:25.621Z,-0.19
2023-02-05T05:06:55.070Z,-0.22
2023-02-05T05:09:26.472Z,-0.35
2023-02-05T05:12:00.257Z,-0.44
2023-02-05T05:14:42.151Z,-0.20
2023-02-05T05:17:20.653Z,-0.30
2023-02-05T05:23:01.097Z,-0.20
2023-02-05T05:25:35.271Z,-0.36
2023-02-05T05:28:12.364Z,0.03
2023-02-05T05:30:44.613Z,-0.06
2023-02-05T05:33:25.024Z,-0.20
2023-02-05T05:35:56.794Z,-0.45
2023-02-05T05:38:32.596Z,-0.27
2023-02-05T05:41:22.469Z,-0.34
2023-02-05T05:43:55.116Z,-0.34
2023-02-05T05:46:46.897Z,-0.49
2023-02-05T05:49:24.528Z,-0.40
2023-02-05T05:52:02.220Z,-0.58
2023-02-05T05:54:35.686Z,-0.53
2023-02-05T05:57:08.116Z,-0.63
2023-02-05T05:59:43.756Z,-0.41
2023-02-05T06:02:14.292Z,-0.42
2023-02-05T06:04:43.948Z,-0.24
2023-02-05T06:07:26.449Z,-0.30
2023-02-05T06:09:56.054Z,-0.47
2023-02-05T06:12:44.454Z,-0.43
2023-02-05T06:15:20.689Z,-0.32
2023-02-05T06:18:05.159Z,-0.43
2023-02-05T06:20:54.669Z,-0.29
2023-02-05T06:23:34.043Z,-0.34
2023-02-05T06:26:06.668Z,-0.36
2023-02-05T06:28:43.731Z,-0.38
2023-02-05T06:31:18.369Z,-0.53
2023-02-05T06:37:03.822Z,-0.44
2023-02-05T06:39:40.982Z,-0.35
2023-02-05T06:42:11.400Z,-0.32
2023-02-05T06:44:43.637Z,-0.28
2023-02-05T06:47:16.168Z,-0.23
2023-02-05T06:49:47.878Z,-0.40
2023-02-05T06:58:24.929Z,-0.23
2023-02-05T07:01:03.830Z,-0.53
2023-02-05T07:03:37.049Z,-0.27
2023-02-05T07:06:25.959Z,-0.30
2023-02-05T07:08:59.603Z,-0.48
2023-02-05T07:11:44.528Z,-0.23
2023-02-05T07:14:34.427Z,-0.21
2023-02-05T07:17:20.596Z,-0.45
2023-02-05T07:19:54.711Z,-0.15
2023-02-05T07:22:28.927Z,-0.31
2023-02-05T07:25:03.901Z,-0.18
2023-02-05T07:27:43.853Z,-0.23
2023-02-05T07:30:29.199Z,-0.13
2023-02-05T07:33:03.725Z,-0.19
2023-02-05T07:35:34.165Z,-0.09
2023-02-05T07:38:04.683Z,-0.12
2023-02-05T07:40:41.275Z,-0.11
2023-02-05T07:43:13.243Z,-0.12
2023-02-05T07:45:51.187Z,-0.19
2023-02-05T07:48:26.109Z,-0.20
2023-02-05T07:50:59.575Z,0.01
2023-02-05T07:53:30.551Z,-0.20
2023-02-05T07:56:13.924Z,-0.03
2023-02-05T07:58:55.077Z,0.01
2023-02-05T08:01:27.390Z,0.08
2023-02-05T08:04:05.530Z,0.15
2023-02-05T08:06:39.283Z,0.17
2023-02-05T08:09:11.081Z,0.37
2023-02-05T08:11:47.990Z,0.40
2023-02-05T08:14:22.057Z,0.37
2023-02-05T08:16:53.000Z,0.35
2023-02-05T08:19:22.531Z,0.32
2023-02-05T08:21:57.409Z,0.37
2023-02-05T08:24:29.340Z,0.57
2023-02-05T08:26:59.992Z,0.56
2023-02-05T08:29:31.604Z,0.49
2023-02-05T08:32:16.170Z,0.69
2023-02-05T08:34:54.410Z,0.56
2023-02-05T08:37:34.872Z,0.51
2023-02-05T08:40:14.669Z,0.55
2023-02-05T08:42:48.783Z,0.60
2023-02-05T08:45:23.854Z,0.68
2023-02-05T08:51:25.318Z,0.71
2023-02-05T08:53:59.058Z,0.85
2023-02-05T08:56:31.056Z,0.77
2023-02-05T08:59:08.360Z,0.68
2023-02-05T09:01:43.898Z,0.88
2023-02-05T09:04:15.692Z,0.90
2023-02-05T09:06:50.605Z,1.00
2023-02-05T09:09:24.830Z,0.81
2023-02-05T09:11:55.514Z,0.96
2023-02-05T09:14:29.641Z,0.79
2023-02-05T09:17:06.178Z,0.76
2023-02-05T09:19:37.669Z,0.58
2023-02-05T09:22:14.835Z,0.76
2023-02-05T09:24:51.409Z,0.88
2023-02-05T09:27:38.874Z,1.08
2023-02-05T09:30:13.875Z,1.04
2023-02-05T09:32:45.670Z,1.18
2023-02-05T09:35:21.983Z,0.85
2023-02-05T09:38:02.478Z,1.22
2023-02-05T09:40:38.296Z,1.22
2023-02-05T09:43:27.801Z,1.09
2023-02-05T09:46:02.732Z,1.02
2023-02-05T09:48:49.820Z,1.11
2023-02-05T09:51:23.034Z,0.94
2023-02-05T09:54:08.564Z,1.09
2023-02-05T09:56:39.940Z,1.33
2023-02-05T09:59:16.591Z,1.12
2023-02-05T10:01:52.219Z,1.08
2023-02-05T10:04:29.235Z,1.22
2023-02-05T10:07:22.272Z,1.22
2023-02-05T10:10:45.595Z,1.38
2023-02-05T10:13:33.646Z,1.26
2023-02-05T10:16:36.506Z,1.54
2023-02-05T10:19:51.448Z,1.74
2023-02-05T10:22:28.334Z,1.49
2023-02-05T10:25:20.454Z,1.58
2023-02-05T10:28:00.230Z,1.62
2023-02-05T10:30:34.227Z,1.42
2023-02-05T10:33:09.013Z,1.62
2023-02-05T10:35:57.708Z,1.40
2023-02-05T10:38:31.321Z,1.75
2023-02-05T10:41:10.816Z,1.56
2023-02-05T10:43:50.468Z,1.49
2023-02-05T10:46:27.148Z,1.47
2023-02-05T10:48:58.826Z,1.41
2023-02-05T10:51:38.964Z,1.45
2023-02-05T10:54:24.012Z,1.61
2023-02-05T10:57:03.753Z,1.47
2023-02-05T10:59:39.899Z,1.82
2023-02-05T11:02:14.384Z,1.52
2023-02-05T11:04:47.449Z,1.47
2023-02-05T11:07:25.461Z,1.66
2023-02-05T11:09:57.337Z,1.86
2023-02-05T11:12:32.782Z,1.70
2023-02-05T11:15:05.032Z,1.46
2023-02-05T11:17:37.908Z,1.66
2023-02-05T11:20:17.088Z,1.70
2023-02-05T11:22:46.389Z,1.71
2023-02-05T11:25:20.636Z,2.03
2023-02-05T11:27:56.572Z,2.10
2023-02-05T11:30:50.420Z,1.95
2023-02-05T11:33:31.304Z,1.85
2023-02-05T11:36:15.118Z,2.14
2023-02-05T11:38:57.557Z,2.10
2023-02-05T11:41:50.844Z,2.05
2023-02-05T11:44:22.910Z,1.95
2023-02-05T11:47:01.343Z,1.99
2023-02-05T11:49:45.199Z,2.09
2023-02-05T11:52:19.183Z,2.10
2023-02-05T11:54:57.779Z,2.17
2023-02-05T11:57:40.748Z,1.96
2023-02-05T12:00:22.828Z,2.01
2023-02-05T12:03:14.769Z,2.27
2023-02-05T12:05:49.360Z,2.01
2023-02-05T12:08:30.319Z,2.39
2023-02-05T12:11:10.205Z,2.37
2023-02-05T12:13:50.430Z,2.31
2023-02-05T12:16:41.721Z,2.36
2023-02-05T12:19:35.682Z,2.49
2023-02-05T12:22:17.095Z,2.51
2023-02-05T12:24:57.862Z,2.59
2023-02-05T12:27:44.984Z,2.67
2023-02-05T12:30:31.013Z,2.38
2023-02-05T12:33:24.394Z,2.08
2023-02-05T12:39:10.066Z,2.25
2023-02-05T12:41:57.743Z,2.09
2023-02-05T12:44:39.649Z,2.21
2023-02-05T12:47:23.447Z,2.16
2023-02-05T12:50:06.671Z,2.20
2023-02-05T12:52:52.350Z,2.24
2023-02-05T12:55:43.364Z,2.12
2023-02-05T12:58:22.114Z,2.08
2023-02-05T13:01:03.234Z,2.06
2023-02-05T13:03:41.999Z,1.92
2023-02-05T13:06:23.697Z,1.82
2023-02-05T13:08:54.672Z,1.83
2023-02-05T13:11:31.943Z,1.61
2023-02-05T13:14:15.719Z,1.83
2023-02-05T13:16:57.794Z,1.74
2023-02-05T13:19:30.514Z,1.76
2023-02-05T13:25:38.679Z,1.76
2023-02-05T13:28:40.511Z,1.65
2023-02-05T13:31:30.663Z,1.73
2023-02-05T13:34:12.485Z,1.61
2023-02-05T13:37:54.436Z,1.75
2023-02-05T13:40:51.082Z,1.72
2023-02-05T13:43:40.132Z,1.40
2023-02-05T13:47:01.677Z,1.39
2023-02-05T13:50:11.013Z,1.40
2023-02-05T13:53:28.248Z,1.67
2023-02-05T13:56:34.874Z,1.66
2023-02-05T13:59:14.698Z,1.30
2023-02-05T14:01:53.051Z,1.66
2023-02-05T14:04:27.076Z,1.49
2023-02-05T14:07:02.711Z,1.45
2023-02-05T14:09:36.009Z,1.55
2023-02-05T14:12:08.407Z,1.27
2023-02-05T14:14:49.023Z,1.23
2023-02-05T14:18:05.743Z,1.37
2023-02-05T14:20:42.046Z,1.54
2023-02-05T14:23:42.904Z,1.48
2023-02-05T14:26:24.443Z,1.50
2023-02-05T14:28:57.501Z,1.51
2023-02-05T14:32:02.306Z,1.53
2023-02-05T14:35:05.762Z,1.25
2023-02-05T14:37:46.931Z,1.20
2023-02-05T14:40:35.397Z,1.27
2023-02-05T14:43:25.400Z,1.20
2023-02-05T14:45:58.930Z,1.25
2023-02-05T14:48:40.873Z,1.06
2023-02-05T14:51:27.547Z,1.00
2023-02-05T14:54:06.628Z,1.22
2023-02-05T14:56:41.083Z,1.22
2023-02-05T14:59:29.742Z,1.40
2023-02-05T15:02:04.202Z,1.28
2023-02-05T15:04:50.805Z,1.47
2023-02-05T15:07:28.586Z,1.21
2023-02-05T15:10:07.716Z,1.37
2023-02-05T15:12:57.928Z,1.34
2023-02-05T15:15:36.152Z,1.46
2023-02-05T15:18:18.942Z,1.46
2023-02-05T15:20:50.657Z,1.39
2023-02-05T15:23:32.404Z,1.01
2023-02-05T15:26:28.563Z,1.20
2023-02-05T15:29:18.075Z,0.93
2023-02-05T15:31:59.064Z,1.07
2023-02-05T15:34:41.747Z,1.00
2023-02-05T15:40:43.894Z,0.97
2023-02-05T15:43:19.960Z,0.84
2023-02-05T15:46:05.729Z,0.83
2023-02-05T15:48:45.583Z,0.78
2023-02-05T15:51:34.985Z,1.01
2023-02-05T15:54:09.017Z,0.91
2023-02-05T15:56:50.021Z,0.94
2023-02-05T15:59:36.025Z,0.82
2023-02-05T16:02:21.158Z,0.56
2023-02-05T16:04:58.707Z,0.63
2023-02-05T16:07:35.200Z,0.65
2023-02-05T16:10:31.333Z,0.44
2023-02-05T16:13:02.787Z,0.53
2023-02-05T16:15:41.833Z,0.67
2023-02-05T16:18:22.310Z,0.65
2023-02-05T16:20:55.708Z,0.58
2023-02-05T16:23:34.418Z,0.67
2023-02-05T16:26:09.299Z,0.34
2023-02-05T16:28:47.159Z,0.33
2023-02-05T16:31:33.794Z,0.41
2023-02-05T16:34:19.884Z,0.68
2023-02-05T16:36:58.998Z,0.33
2023-02-05T16:39:51.006Z,0.56
2023-02-05T16:42:36.298Z,0.45
2023-02-05T16:45:27.404Z,0.46
2023-02-05T16:48:35.430Z,0.30
2023-02-05T16:51:44.101Z,0.27
2023-02-05T16:54:41.375Z,0.29
2023-02-05T16:57:18.948Z,0.35
2023-02-05T16:59:58.388Z,0.18
2023-02-05T17:02:39.584Z,0.26
2023-02-05T17:05:27.137Z,0.24
2023-02-05T17:08:08.908Z,0.45
2023-02-05T17:11:04.954Z,0.39
2023-02-05T17:13:49.885Z,0.32
2023-02-05T17:16:31.935Z,0.46
2023-02-05T17:19:12.423Z,0.42
2023-02-05T17:22:25.084Z,0.46
2023-02-05T17:24:56.926Z,0.46
2023-02-05T17:27:35.978Z,0.19
2023-02-05T17:30:19.901Z,0.33
2023-02-05T17:32:52.941Z,0.31
2023-02-05T17:35:36.297Z,0.32
2023-02-05T17:38:11.721Z,0.19
2023-02-05T17:40:45.844Z,0.42
2023-02-05T17:43:19.361Z,0.23
2023-02-05T17:46:00.365Z,0.53
2023-02-05T17:51:25.072Z,0.25
2023-02-05T17:54:33.765Z,0.01
2023-02-05T17:57:15.402Z,0.13
2023-02-05T17:59:53.277Z,0.09
2023-02-05T18:02:36.013Z,0.15
2023-02-05T18:05:07.007Z,0.05
2023-02-05T18:07:45.701Z,0.29
2023-02-05T18:10:39.730Z,0.06
2023-02-05T18:13:11.658Z,-0.07
2023-02-05T18:15:46.440Z,0.20
2023-02-05T18:18:22.024Z,0.10
2023-02-05T18:20:54.069Z,0.13
2023-02-05T18:23:29.078Z,0.13
2023-02-05T18:26:09.144Z,0.10
2023-02-05T18:28:50.519Z,0.08
2023-02-05T18:31:24.050Z,0.15
2023-02-05T18:33:55.105Z,0.04
2023-02-05T18:39:18.222Z,-0.12
2023-02-05T18:41:52.061Z,-0.03
2023-02-05T18:44:26.256Z,-0.08
2023-02-05T18:47:11.901Z,0.15
2023-02-05T18:49:46.926Z,-0.06
2023-02-05T18:52:24.805Z,-0.12
2023-02-05T18:54:55.470Z,-0.12
2023-02-05T18:57:32.789Z,-0.29
2023-02-05T19:00:11.658Z,-0.10
2023-02-05T19:02:47.857Z,0.24
2023-02-05T19:05:25.799Z,0.07
2023-02-05T19:07:57.997Z,-0.14
2023-02-05T19:10:27.731Z,0.03
2023-02-05T19:13:07.116Z,0.17
2023-02-05T19:15:37.246Z,-0.25
2023-02-05T19:18:26.918Z,-0.13
2023-02-05T19:20:56.085Z,-0.11
2023-02-05T19:23:44.060Z,-0.18
2023-02-05T19:26:20.286Z,-0.27
2023-02-05T19:29:06.752Z,-0.21
2023-02-05T19:31:41.212Z,-0.23
2023-02-05T19:34:31.102Z,-0.16
2023-02-05T19:37:04.758Z,-0.32
2023-02-05T19:39:36.740Z,-0.27
2023-02-05T19:42:11.437Z,-0.31
2023-02-05T19:44:44.476Z,-0.15
2023-02-05T19:47:24.601Z,-0.27
2023-02-05T19:49:59.617Z,-0.42
2023-02-05T19:52:41.786Z,-0.35
2023-02-05T19:55:12.852Z,-0.42
2023-02-05T19:57:47.542Z,-0.52
2023-02-05T20:00:29.330Z,-0.71
2023-02-05T20:03:07.643Z,-0.68
2023-02-05T20:05:38.785Z,-0.45
2023-02-05T20:08:14.605Z,-0.55
2023-02-05T20:11:03.863Z,-0.73
2023-02-05T20:14:08.599Z,-0.63
2023-02-05T20:16:52.920Z,-0.60
2023-02-05T20:19:38.728Z,-0.86
2023-02-05T20:22:09.326Z,-0.82
2023-02-05T20:24:40.293Z,-0.53
2023-02-05T20:27:23.726Z,-0.84
2023-02-05T20:30:17.985Z,-0.78
2023-02-05T20:32:57.232Z,-1.05
2023-02-05T20:35:37.322Z,-1.00
2023-02-05T20:38:19.348Z,-0.95
2023-02-05T20:41:00.948Z,-0.82
2023-02-05T20:43:42.143Z,-1.07
2023-02-05T20:46:20.284Z,-0.97
2023-02-05T20:49:15.019Z,-0.90
2023-02-05T20:51:48.581Z,-1.00
2023-02-05T20:54:29.421Z,-0.88
2023-02-05T20:57:01.777Z,-1.03
2023-02-05T20:59:38.122Z,-0.92
2023-02-05T21:02:27.608Z,-1.21
2023-02-05T21:05:10.618Z,-1.22
2023-02-05T21:07:52.686Z,-1.20
2023-02-05T21:10:28.811Z,-1.23
2023-02-05T21:13:12.671Z,-1.13
2023-02-05T21:15:49.885Z,-1.22
2023-02-05T21:18:23.662Z,-1.17
2023-02-05T21:20:59.087Z,-1.15
2023-02-05T21:23:31.351Z,-1.19
2023-02-05T21:26:12.042Z,-1.18
2023-02-05T21:28:49.367Z,-1.36
2023-02-05T21:31:27.323Z,-1.32
2023-02-05T21:33:59.053Z,-1.20
2023-02-05T21:36:36.631Z,-1.22
2023-02-05T21:39:18.340Z,-1.07
2023-02-05T21:41:53.588Z,-1.47
2023-02-05T21:44:23.428Z,-1.38
2023-02-05T21:47:03.422Z,-1.37
2023-02-05T21:49:40.907Z,-1.31
2023-02-05T21:52:17.598Z,-1.22
2023-02-05T21:54:55.095Z,-1.47
2023-02-05T21:57:33.644Z,-1.30
2023-02-05T22:00:03.929Z,-1.55
2023-02-05T22:02:56.540Z,-1.44
2023-02-05T22:05:28.448Z,-1.57
2023-02-05T22:08:15.596Z,-1.33
2023-02-05T22:10:57.810Z,-1.42
2023-02-05T22:13:27.335Z,-1.47
2023-02-05T22:16:09.213Z,-1.50
2023-02-05T22:18:42.990Z,-1.43
2023-02-05T22:21:16.786Z,-1.16
2023-02-05T22:24:04.876Z,-1.60
2023-02-05T22:26:40.016Z,-1.68
2023-02-05T22:29:26.181Z,-1.61
2023-02-05T22:31:59.988Z,-1.76
2023-02-05T22:34:32.797Z,-1.56
2023-02-05T22:37:05.884Z,-1.75
2023-02-05T22:39:36.834Z,-1.74
2023-02-05T22:42:12.557Z,-1.68
2023-02-05T22:44:57.768Z,-1.87
2023-02-05T22:47:31.217Z,-1.94
2023-02-05T22:50:12.019Z,-1.83
2023-02-05T22:52:51.472Z,-1.77
2023-02-05T22:55:25.329Z,-1.93
2023-02-05T22:58:02.881Z,-1.94
2023-02-05T23:00:32.537Z,-1.75
2023-02-05T23:03:05.207Z,-1.83
2023-02-05T23:05:37.314Z,-1.64
2023-02-05T23:08:12.350Z,-1.70
2023-02-05T23:10:54.569Z,-1.78
2023-02-05T23:13:29.973Z,-1.93
2023-02-05T23:16:01.664Z,-2.01
2023-02-05T23:18:33.676Z,-1.97
2023-02-05T23:21:07.827Z,-1.93
2023-02-05T23:23:40.253Z,-1.80
2023-02-05T23:26:21.642Z,-1.88
2023-02-05T23:28:56.131Z,-1.92
2023-02-05T23:31:30.786Z,-1.82
2023-02-05T23:34:00.735Z,-1.89
2023-02-05T23:36:30.318Z,-1.94
2023-02-05T23:39:14.752Z,-2.13
2023-02-05T23:41:47.715Z,-1.81
2023-02-05T23:44:20.514Z,-1.85
2023-02-05T23:49:40.465Z,-1.93
2023-02-05T23:52:12.957Z,-2.00
2023-02-05T23:54:46.042Z,-1.94
2023-02-05T23:57:18.965Z,-1.91
2023-02-05T23:59:50.303Z,-2.07
